createdAt,value
2022-10-17T00:02:26.743Z,10.89
2022-10-17T00:04:53.992Z,10.88
2022-10-17T00:07:20.959Z,10.94
2022-10-17T00:09:47.920Z,10.94
2022-10-17T00:12:15.178Z,10.93
2022-10-17T00:14:42.291Z,10.91
2022-10-17T00:17:09.313Z,10.81
2022-10-17T00:19:36.591Z,10.78
2022-10-17T00:22:03.589Z,10.74
2022-10-17T00:24:31.644Z,10.72
2022-10-17T00:26:58.963Z,10.74
2022-10-17T00:29:26.049Z,10.76
2022-10-17T00:31:57.238Z,10.77
2022-10-17T00:34:24.975Z,10.71
2022-10-17T00:36:52.313Z,10.68
2022-10-17T00:39:19.367Z,10.72
2022-10-17T00:41:47.477Z,10.71
2022-10-17T00:44:29.888Z,10.71
2022-10-17T00:47:10.525Z,10.69
2022-10-17T00:49:38.819Z,10.60
2022-10-17T00:52:29.745Z,10.53
2022-10-17T00:55:13.452Z,10.52
2022-10-17T00:57:41.548Z,10.52
2022-10-17T01:00:10.518Z,10.54
2022-10-17T01:02:38.076Z,10.57
2022-10-17T01:05:06.686Z,10.60
2022-10-17T01:07:37.217Z,10.52
2022-10-17T01:10:05.665Z,10.48
2022-10-17T01:13:22.934Z,10.47
2022-10-17T01:15:57.198Z,10.54
2022-10-17T01:18:41.881Z,10.59
2022-10-17T01:21:14.748Z,10.54
2022-10-17T01:24:06.797Z,10.55
2022-10-17T01:26:39.978Z,10.52
2022-10-17T01:29:23.901Z,10.53
2022-10-17T01:32:00.048Z,10.53
2022-10-17T01:34:39.204Z,10.56
2022-10-17T01:37:15.700Z,10.54
2022-10-17T01:39:46.979Z,10.44
2022-10-17T01:42:38.092Z,10.40
2022-10-17T01:45:14.932Z,10.36
2022-10-17T01:47:42.380Z,10.38
2022-10-17T01:50:14.471Z,10.29
2022-10-17T01:52:46.630Z,10.29
2022-10-17T01:55:21.539Z,10.26
2022-10-17T01:57:51.650Z,10.27
2022-10-17T02:00:22.049Z,10.25
2022-10-17T02:02:54.309Z,10.23
2022-10-17T02:05:25.409Z,10.08
2022-10-17T02:07:52.681Z,10.05
2022-10-17T02:10:31.017Z,10.05
2022-10-17T02:13:07.737Z,10.08
2022-10-17T02:16:00.090Z,10.15
2022-10-17T02:19:16.152Z,10.03
2022-10-17T02:21:58.332Z,9.94
2022-10-17T02:24:45.611Z,9.89
2022-10-17T02:27:30.328Z,9.91
2022-10-17T02:30:11.681Z,9.83
2022-10-17T02:32:56.192Z,9.74
2022-10-17T02:35:26.227Z,9.85
2022-10-17T02:37:53.606Z,9.81
2022-10-17T02:40:22.130Z,9.82
2022-10-17T02:42:49.743Z,9.90
2022-10-17T02:45:17.059Z,9.93
2022-10-17T02:47:51.457Z,9.95
2022-10-17T02:50:22.857Z,9.87
2022-10-17T02:52:56.921Z,9.82
2022-10-17T02:55:47.928Z,9.81
2022-10-17T02:58:25.664Z,9.75
2022-10-17T03:00:53.425Z,9.74
2022-10-17T03:03:26.183Z,9.68
2022-10-17T03:05:54.088Z,9.67
2022-10-17T03:08:22.721Z,9.69
2022-10-17T03:10:50.140Z,9.63
2022-10-17T03:13:19.058Z,9.63
2022-10-17T03:15:46.367Z,9.70
2022-10-17T03:18:14.068Z,9.86
2022-10-17T03:20:41.503Z,9.98
2022-10-17T03:23:08.722Z,9.96
2022-10-17T03:25:36.199Z,9.95
2022-10-17T03:28:05.514Z,9.88
2022-10-17T03:30:33.577Z,9.87
2022-10-17T03:33:00.845Z,9.82
2022-10-17T03:35:28.276Z,9.71
2022-10-17T03:37:56.212Z,9.64
2022-10-17T03:40:23.558Z,9.57
2022-10-17T03:42:51.189Z,9.61
2022-10-17T03:45:18.354Z,9.63
2022-10-17T03:47:45.752Z,9.63
2022-10-17T03:50:13.098Z,9.56
2022-10-17T03:52:48.088Z,9.56
2022-10-17T03:55:16.145Z,9.50
2022-10-17T03:57:45.441Z,9.47
2022-10-17T04:00:13.665Z,9.39
2022-10-17T04:02:41.241Z,9.36
2022-10-17T04:05:09.601Z,9.31
2022-10-17T04:07:37.644Z,9.24
2022-10-17T04:10:05.681Z,9.23
2022-10-17T04:12:33.111Z,9.19
2022-10-17T04:15:00.168Z,9.08
2022-10-17T04:17:27.483Z,9.12
2022-10-17T04:19:54.781Z,9.05
2022-10-17T04:22:22.838Z,9.04
2022-10-17T04:24:49.841Z,9.01
2022-10-17T04:27:17.993Z,9.00
2022-10-17T04:29:45.226Z,8.99
2022-10-17T04:32:12.842Z,8.96
2022-10-17T04:34:40.352Z,8.91
2022-10-17T04:37:07.424Z,8.88
2022-10-17T04:39:34.620Z,8.87
2022-10-17T04:42:02.077Z,8.85
2022-10-17T04:44:30.980Z,8.82
2022-10-17T04:46:58.144Z,8.80
2022-10-17T04:49:25.728Z,8.78
2022-10-17T04:51:53.011Z,8.82
2022-10-17T04:54:23.916Z,8.80
2022-10-17T04:56:52.151Z,8.74
2022-10-17T04:59:19.385Z,8.72
2022-10-17T05:01:46.805Z,8.68
2022-10-17T05:04:14.127Z,8.72
2022-10-17T05:06:41.151Z,8.70
2022-10-17T05:09:09.744Z,8.69
2022-10-17T05:11:37.557Z,8.65
2022-10-17T05:14:04.823Z,8.67
2022-10-17T05:16:32.565Z,8.66
2022-10-17T05:19:00.194Z,8.70
2022-10-17T05:21:29.849Z,8.73
2022-10-17T05:23:57.400Z,8.75
2022-10-17T05:26:25.286Z,8.85
2022-10-17T05:28:53.181Z,8.95
2022-10-17T05:31:20.859Z,8.99
2022-10-17T05:33:48.258Z,9.05
2022-10-17T05:36:15.328Z,9.17
2022-10-17T05:38:43.806Z,9.23
2022-10-17T05:41:11.494Z,9.37
2022-10-17T05:43:38.686Z,9.43
2022-10-17T05:46:06.604Z,9.48
2022-10-17T05:48:34.701Z,9.56
2022-10-17T05:51:06.209Z,9.66
2022-10-17T05:53:35.279Z,9.76
2022-10-17T05:56:05.114Z,9.85
2022-10-17T05:58:52.347Z,9.98
2022-10-17T06:01:21.391Z,10.18
2022-10-17T06:03:48.805Z,10.21
2022-10-17T06:06:16.873Z,10.37
2022-10-17T06:08:45.449Z,10.54
2022-10-17T06:11:13.350Z,10.69
2022-10-17T06:13:40.509Z,10.76
2022-10-17T06:16:08.603Z,10.87
2022-10-17T06:18:35.959Z,11.01
2022-10-17T06:21:12.781Z,11.09
2022-10-17T06:23:41.513Z,11.31
2022-10-17T06:26:09.656Z,11.31
2022-10-17T06:28:37.286Z,11.47
2022-10-17T06:31:09.445Z,11.54
2022-10-17T06:33:36.601Z,11.51
2022-10-17T06:36:05.319Z,11.71
2022-10-17T06:38:34.480Z,11.76
2022-10-17T06:41:21.396Z,11.77
2022-10-17T06:43:52.264Z,11.88
2022-10-17T06:46:21.126Z,12.01
2022-10-17T06:48:50.512Z,12.16
2022-10-17T06:51:18.185Z,12.18
2022-10-17T06:53:45.404Z,12.18
2022-10-17T06:56:12.607Z,12.12
2022-10-17T06:58:40.813Z,12.18
2022-10-17T07:01:10.898Z,12.35
2022-10-17T07:03:38.364Z,12.39
2022-10-17T07:06:06.142Z,12.40
2022-10-17T07:08:33.585Z,12.59
2022-10-17T07:11:12.392Z,12.78
2022-10-17T07:13:39.904Z,12.98
2022-10-17T07:16:07.675Z,12.88
2022-10-17T07:18:35.343Z,13.01
2022-10-17T07:21:03.806Z,12.94
2022-10-17T07:23:31.508Z,13.02
2022-10-17T07:26:02.673Z,13.16
2022-10-17T07:28:30.166Z,13.18
2022-10-17T07:31:14.882Z,13.28
2022-10-17T07:33:43.418Z,13.30
2022-10-17T07:36:10.878Z,13.41
2022-10-17T07:38:38.261Z,13.60
2022-10-17T07:41:07.800Z,13.57
2022-10-17T07:43:36.438Z,13.56
2022-10-17T07:46:08.396Z,13.73
2022-10-17T07:48:35.649Z,13.80
2022-10-17T07:51:04.616Z,13.86
2022-10-17T07:53:32.278Z,13.99
2022-10-17T07:55:59.300Z,13.91
2022-10-17T07:58:26.449Z,13.95
2022-10-17T08:00:53.881Z,14.10
2022-10-17T08:03:21.279Z,14.10
2022-10-17T08:05:48.382Z,14.34
2022-10-17T08:08:15.370Z,14.38
2022-10-17T08:10:42.691Z,14.35
2022-10-17T08:13:09.751Z,14.40
2022-10-17T08:15:38.075Z,14.51
2022-10-17T08:18:05.507Z,14.46
2022-10-17T08:20:32.569Z,14.57
2022-10-17T08:22:59.563Z,14.59
2022-10-17T08:25:26.995Z,14.74
2022-10-17T08:27:54.110Z,14.90
2022-10-17T08:30:21.287Z,14.86
2022-10-17T08:32:48.564Z,14.88
2022-10-17T08:35:15.617Z,14.97
2022-10-17T08:37:42.663Z,15.07
2022-10-17T08:40:19.506Z,15.11
2022-10-17T08:42:49.419Z,15.14
2022-10-17T08:45:22.471Z,15.20
2022-10-17T08:47:53.456Z,15.23
2022-10-17T08:50:43.486Z,15.36
2022-10-17T08:53:16.208Z,15.38
2022-10-17T08:55:46.935Z,15.34
2022-10-17T08:58:22.861Z,15.37
2022-10-17T09:04:13.995Z,15.47
2022-10-17T09:06:55.626Z,15.54
2022-10-17T09:09:30.711Z,15.57
2022-10-17T09:12:23.981Z,15.60
2022-10-17T09:15:09.656Z,15.64
2022-10-17T09:17:53.330Z,15.78
2022-10-17T09:20:30.290Z,15.67
2022-10-17T09:23:04.295Z,15.76
2022-10-17T09:25:49.945Z,15.89
2022-10-17T09:28:38.290Z,15.98
2022-10-17T09:31:22.296Z,16.07
2022-10-17T09:33:55.353Z,16.24
2022-10-17T09:36:31.300Z,16.10
2022-10-17T09:39:00.975Z,16.08
2022-10-17T09:41:49.741Z,16.26
